KJ6MC Weather Reports


Display with metric or nautical units.
time (UTC)temp
F
wind
direction
speed
MPH
gust
MPH
rain 1hr
in
rain 24hr
in
rain mn
in
humidity
%
barometer
mb
20171019104903 52 176 1.0 6.0 0.00 0.00 0.00 88 1013.7
20171019103903 51 209 2.0 5.0 0.00 0.00 0.00 88 1013.6
20171019101902 50 165 0.0 2.0 0.00 0.00 0.00 86 1013.6
20171019100902 50 159 0.0 2.0 0.00 0.00 0.00 86 1013.6
20171019095902 50 143 0.0 3.0 0.00 0.00 0.00 85 1013.7
20171019094902 51 139 0.0 2.0 0.00 0.00 0.00 84 1013.8
20171019091902 52 168 0.0 1.0 0.00 0.00 0.00 82 1013.8
20171019090901 52 176 0.0 1.0 0.00 0.00 0.00 81 1013.8
20171019085901 52 170 0.0 3.0 0.00 0.00 0.00 81 1013.9
20171019083901 53 187 1.0 3.0 0.00 0.00 0.00 80 1013.6
20171019082901 53 165 2.0 6.0 0.00 0.00 0.00 80 1013.7
20171019081900 53 234 0.0 6.0 0.00 0.00 0.00 80 1013.8
20171019074900 54 159 0.0 6.0 0.00 0.00 0.00 78 1013.8
20171019073900 55 114 2.0 6.0 0.00 0.00 0.00 76 1013.9
20171019071900 55 149 1.0 7.0 0.00 0.00 0.00 72 1014.0
20171019064859 56 124 3.0 3.0 0.00 0.00 0.00 67 1013.9
20171019061859 56 240 0.0 3.0 0.00 0.00 0.00 68 1013.7
20171019060859 55 254 0.0 2.0 0.00 0.00 0.00 69 1013.7
20171019055859 55 156 0.0 1.0 0.00 0.00 0.00 70 1013.5
20171019053858 56 156 0.0 1.0 0.00 0.00 0.00 68 1013.4
20171019052858 56 214 0.0 0.0 0.00 0.00 0.00 68 1013.3
20171019041857 61 159 0.0 2.0 0.00 0.00 0.00 62 1013.0
20171019040857 62 138 0.0 2.0 0.00 0.00 0.00 60 1013.0
20171019034857 63 232 1.0 8.0 0.00 0.00 0.00 57 1013.0
20171019032856 64 249 3.0 6.0 0.00 0.00 0.00 55 1013.1
20171019024856 66 222 2.0 6.0 0.00 0.00 0.00 52 1013.1
20171019023856 67 260 0.0 6.0 0.00 0.00 0.00 50 1013.1
20171019020856 70 238 3.0 5.0 0.00 0.00 0.00 39 1013.0
20171019014855 71 256 3.0 3.0 0.00 0.00 0.00 34 1012.9
20171019013855 72 275 0.0 3.0 0.00 0.00 0.00 33 1012.8
20171019012855 73 248 0.0 6.0 0.00 0.00 0.00 32 1012.8
20171019011855 74 248 1.0 3.0 0.00 0.00 0.00 31 1012.9
20171019005854 76 260 0.0 4.0 0.00 0.00 0.00 29 1012.9
20171019004854 77 290 0.0 4.0 0.00 0.00 0.00 27 1012.8
20171019003854 78 220 3.0 4.0 0.00 0.00 0.00 26 1012.8
20171019001854 80 246 1.0 5.0 0.00 0.00 0.00 27 1012.9
20171018235853 81 270 2.0 4.0 0.00 0.00 0.00 25 1013.0
20171018234853 81 261 0.0 4.0 0.00 0.00 0.00 23 1013.0
20171018233853 81 247 2.0 4.0 0.00 0.00 0.00 23 1013.1
20171018224852 83 232 0.0 4.0 0.00 0.00 0.00 25 1013.5
20171018222852 82 243 2.0 3.0 0.00 0.00 0.00 24 1013.7
20171018221925 82 245 0.0 5.0 0.00 0.00 0.00 25 1013.8
20171018220924 82 321 0.0 3.0 0.00 0.00 0.00 23 1013.9
20171018215924 82 147 2.0 4.0 0.00 0.00 0.00 23 1014.1
20171018214924 82 222 1.0 3.0 0.00 0.00 0.00 26 1014.1
20171018213924 81 256 0.0 3.0 0.00 0.00 0.00 27 1014.2
20171018212924 81 284 2.0 3.0 0.00 0.00 0.00 25 1014.4
20171018211923 80 3 0.0 3.0 0.00 0.00 0.00 27 1014.5
20171018210924 80 345 0.0 2.0 0.00 0.00 0.00 25 1014.7
20171018205924 80 328 0.0 5.0 0.00 0.00 0.00 26 1014.8
20171018204923 80 189 1.0 5.0 0.00 0.00 0.00 26 1015.0
20171018203923 80 196 1.0 5.0 0.00 0.00 0.00 26 1015.2
20171018200923 78 240 1.0 3.0 0.00 0.00 0.00 27 1015.8
20171018194922 78 277 1.0 3.0 0.00 0.00 0.00 29 1016.1
20171018185922 74 246 0.0 2.0 0.00 0.00 0.00 29 1016.7
20171018184922 73 18 0.0 2.0 0.00 0.00 0.00 31 1016.8
20171018181921 70 252 0.0 1.0 0.00 0.00 0.00 35 1017.1
20171018175921 68 342 0.0 1.0 0.00 0.00 0.00 39 1017.2
20171018174921 66 193 0.0 1.0 0.00 0.00 0.00 40 1017.2
20171018172920 66 174 0.0 1.0 0.00 0.00 0.00 41 1017.3
20171018165920 63 150 0.0 1.0 0.00 0.00 0.00 44 1017.3
20171018164920 63 147 0.0 1.0 0.00 0.00 0.00 45 1017.2
20171018163920 60 144 0.0 1.0 0.00 0.00 0.00 48 1017.2
20171018162919 58 115 0.0 2.0 0.00 0.00 0.00 52 1017.1
20171018160919 56 115 0.0 2.0 0.00 0.00 0.00 54 1017.0
20171018154919 52 107 0.0 0.0 0.00 0.00 0.00 66 1016.9
20171018151918 48 144 0.0 1.0 0.00 0.00 0.00 77 1016.8
20171018145918 44 173 0.0 0.0 0.00 0.00 0.00 85 1016.6
20171018144918 43 173 0.0 0.0 0.00 0.00 0.00 88 1016.4
20171018143918 42 173 0.0 0.0 0.00 0.00 0.00 88 1016.4
20171018142918 42 173 0.0 0.0 0.00 0.00 0.00 87 1016.3
20171018141918 43 173 0.0 0.0 0.00 0.00 0.00 86 1016.2
20171018140917 43 173 0.0 0.0 0.00 0.00 0.00 86 1016.3
20171018135917 42 173 0.0 0.0 0.00 0.00 0.00 87 1016.1
20171018133917 42 173 0.0 0.0 0.00 0.00 0.00 86 1016.2
20171018131917 43 173 0.0 0.0 0.00 0.00 0.00 83 1015.9
20171018125917 44 173 0.0 0.0 0.00 0.00 0.00 83 1015.8
20171018124916 44 173 0.0 0.0 0.00 0.00 0.00 84 1015.7
20171018122916 45 173 0.0 0.0 0.00 0.00 0.00 80 1015.8
20171018121916 45 173 0.0 0.0 0.00 0.00 0.00 78 1015.7
20171018120916 46 173 0.0 0.0 0.00 0.00 0.00 78 1015.8
20171018114916 46 173 0.0 0.0 0.00 0.00 0.00 77 1015.6
20171018113916 46 173 0.0 0.0 0.00 0.00 0.00 78 1015.6
20171018112915 46 173 0.0 0.0 0.00 0.00 0.00 77 1015.5
20171018111915 47 173 0.0 0.0 0.00 0.00 0.00 76 1015.6
20171018110915 47 173 0.0 0.0 0.00 0.00 0.00 76 1015.6
20171018105915 47 173 0.0 0.0 0.00 0.00 0.00 75 1015.7